Time;durP1;ratioP1;P1;durP2;ratioP2;P2;SDS_P1;SDS_P2;PMS_P1;PMS_P2;Temp;Humidity;BMP_temperature;BMP_pressure;BME280_temperature;BME280_humidity;BME280_pressure;Samples;Min_cycle;Max_cycle;Signal;HPM_P1;HPM_P2
2023/03/13 00:00:27;;;;;;;7.93;3.67;;;;;;;10.12;98.96;99760.31;5047850;28;20297;-74
2023/03/13 00:02:52;;;;;;;8.47;3.70;;;;;;;10.15;98.55;99762.00;5046771;28;20197;-74
2023/03/13 00:05:17;;;;;;;6.73;3.00;;;;;;;10.17;98.32;99755.06;5047497;28;20187;-73
2023/03/13 00:07:43;;;;;;;6.03;2.97;;;;;;;10.18;98.26;99759.34;5037345;28;20695;-74
2023/03/13 00:10:08;;;;;;;7.40;2.80;;;;;;;10.20;98.37;99742.94;5042480;28;20212;-73
2023/03/13 00:12:34;;;;;;;5.90;2.90;;;;;;;10.22;97.98;99750.66;5037813;28;20211;-74
2023/03/13 00:14:59;;;;;;;6.17;2.70;;;;;;;10.23;97.88;99747.19;5041321;28;20857;-73
2023/03/13 00:17:24;;;;;;;5.63;2.40;;;;;;;10.24;97.70;99735.97;5038218;28;20297;-73
2023/03/13 00:19:50;;;;;;;6.50;2.73;;;;;;;10.25;98.13;99739.44;5042610;28;20257;-73
2023/03/13 00:22:15;;;;;;;7.37;2.73;;;;;;;10.27;97.88;99735.09;5041556;28;20572;-75
2023/03/13 00:24:40;;;;;;;5.63;2.43;;;;;;;10.28;97.59;99729.88;5056863;28;20244;-74
2023/03/13 00:27:06;;;;;;;8.37;2.97;;;;;;;10.30;97.39;99724.66;5041696;28;21313;-76
2023/03/13 00:29:33;;;;;;;7.27;2.80;;;;;;;10.32;96.74;99721.19;5044172;28;20209;-74
2023/03/13 00:32:00;;;;;;;7.73;2.93;;;;;;;10.34;96.80;99715.97;5044005;28;20631;-76
2023/03/13 00:34:26;;;;;;;5.07;2.73;;;;;;;10.36;96.38;99714.22;5039704;28;20217;-74
2023/03/13 00:36:53;;;;;;;6.83;2.97;;;;;;;10.35;96.13;99705.63;5039562;28;20568;-73
2023/03/13 00:39:18;;;;;;;7.73;3.27;;;;;;;10.37;96.00;99701.25;5043080;28;20353;-73
2023/03/13 00:41:44;;;;;;;4.67;2.10;;;;;;;10.40;95.65;99696.94;5044333;28;20270;-75
2023/03/13 00:44:09;;;;;;;5.43;2.20;;;;;;;10.41;95.83;99694.34;5044003;28;20232;-73
2023/03/13 00:46:35;;;;;;;5.80;2.43;;;;;;;10.42;95.96;99683.13;5048068;28;20265;-74
2023/03/13 00:49:01;;;;;;;5.17;2.20;;;;;;;10.45;95.63;99674.44;5043633;28;20186;-73
2023/03/13 00:51:27;;;;;;;4.60;2.37;;;;;;;10.48;95.27;99674.41;5042107;28;20210;-74
2023/03/13 00:53:53;;;;;;;4.00;2.50;;;;;;;10.48;95.21;99672.66;5040785;28;21891;-73
2023/03/13 00:56:19;;;;;;;4.40;2.30;;;;;;;10.50;94.59;99667.47;5042746;28;20193;-73
2023/03/13 00:58:46;;;;;;;5.10;1.90;;;;;;;10.51;94.50;99664.00;5044355;28;20267;-74
2023/03/13 01:01:12;;;;;;;4.70;1.80;;;;;;;10.47;94.72;99665.75;5039369;28;20190;-74
2023/03/13 01:03:39;;;;;;;5.73;2.43;;;;;;;10.47;94.53;99658.00;5031750;28;21143;-74
2023/03/13 01:06:07;;;;;;;5.53;2.07;;;;;;;10.43;94.71;99655.50;5038264;28;20191;-74
2023/03/13 01:08:33;;;;;;;5.30;2.57;;;;;;;10.44;94.60;99652.88;5039217;28;20570;-74
2023/03/13 01:11:02;;;;;;;6.67;2.17;;;;;;;10.44;94.07;99645.13;5044258;28;20306;-73
2023/03/13 01:13:29;;;;;;;5.17;2.27;;;;;;;10.46;94.28;99643.34;5043679;28;20193;-74
2023/03/13 01:15:55;;;;;;;4.43;2.27;;;;;;;10.49;93.79;99647.66;5045886;28;20186;-74
2023/03/13 01:18:20;;;;;;;5.90;2.17;;;;;;;10.50;94.06;99642.44;5043488;28;20730;-74
2023/03/13 01:20:45;;;;;;;5.13;1.90;;;;;;;10.53;93.97;99638.91;5042080;28;20214;-74
2023/03/13 01:23:10;;;;;;;3.53;1.57;;;;;;;10.59;93.67;99637.97;5042601;28;20189;-74
2023/03/13 01:25:37;;;;;;;6.13;2.13;;;;;;;10.63;93.51;99635.28;5040665;28;20270;-74
2023/03/13 01:28:03;;;;;;;4.30;2.00;;;;;;;10.66;93.42;99642.97;5043961;28;20263;-74
2023/03/13 01:30:29;;;;;;;4.07;1.53;;;;;;;10.68;93.51;99624.84;5043801;28;20212;-74
2023/03/13 01:32:54;;;;;;;4.07;1.57;;;;;;;10.71;93.45;99629.09;5041436;28;20590;-74
2023/03/13 01:35:19;;;;;;;3.50;2.00;;;;;;;10.74;93.55;99623.88;5042710;28;20183;-74
2023/03/13 01:37:44;;;;;;;2.87;1.40;;;;;;;10.76;93.38;99617.75;5044873;28;20715;-74
2023/03/13 01:40:11;;;;;;;4.53;1.97;;;;;;;10.84;93.17;99607.25;5044762;28;20244;-74
2023/03/13 01:42:53;;;;;;;3.40;1.80;;;;;;;10.88;93.69;99608.06;5042640;28;20194;-74
2023/03/13 01:45:50;;;;;;;3.60;1.63;;;;;;;10.91;94.49;99597.63;5043031;28;20214;-74
2023/03/13 01:48:16;;;;;;;3.80;1.93;;;;;;;10.90;95.32;99599.38;5041326;28;20191;-74
2023/03/13 01:50:41;;;;;;;3.23;1.40;;;;;;;10.93;96.68;99595.84;5041987;28;20210;-74
2023/03/13 01:53:06;;;;;;;3.93;1.60;;;;;;;10.93;97.47;99604.50;5042032;28;20558;-74
2023/03/13 01:55:33;;;;;;;5.20;2.10;;;;;;;10.94;98.41;99595.84;5044041;28;20190;-73
2023/03/13 01:57:59;;;;;;;4.53;1.67;;;;;;;10.92;99.08;99586.38;5041552;28;20241;-75
2023/03/13 02:00:32;;;;;;;3.97;1.57;;;;;;;10.90;100.00;99588.16;5039249;28;21050;-74
2023/03/13 02:03:05;;;;;;;3.43;1.47;;;;;;;10.88;100.00;99587.34;5036114;28;20188;-74
2023/03/13 02:05:30;;;;;;;4.10;1.73;;;;;;;10.87;100.00;99589.06;5043887;28;20178;-74
2023/03/13 02:08:17;;;;;;;2.67;1.40;;;;;;;10.86;100.00;99584.78;5040173;28;20194;-74
2023/03/13 02:10:53;;;;;;;3.07;1.50;;;;;;;10.83;100.00;99582.25;5035208;28;20727;-74
2023/03/13 02:13:19;;;;;;;3.50;1.87;;;;;;;10.80;100.00;99577.16;5041273;28;20185;-73
2023/03/13 02:15:46;;;;;;;3.87;1.60;;;;;;;10.78;100.00;99571.16;5039806;28;20188;-74
2023/03/13 02:18:12;;;;;;;3.77;1.10;;;;;;;10.76;100.00;99573.75;5042992;28;20757;-74
2023/03/13 02:20:38;;;;;;;3.40;1.60;;;;;;;10.73;100.00;99571.25;5040607;28;20219;-74
2023/03/13 02:23:09;;;;;;;4.47;1.83;;;;;;;10.73;100.00;99565.22;5042384;28;20186;-74
2023/03/13 02:25:47;;;;;;;3.37;1.47;;;;;;;10.71;100.00;99552.31;5041387;28;20295;-74
2023/03/13 02:28:17;;;;;;;2.63;1.30;;;;;;;10.68;100.00;99545.47;5044218;28;20229;-74
2023/03/13 02:30:44;;;;;;;3.87;1.47;;;;;;;10.67;100.00;99548.94;5039956;28;20290;-74
2023/03/13 02:33:11;;;;;;;3.03;1.40;;;;;;;10.67;100.00;99548.94;5042346;28;20189;-74
2023/03/13 02:35:37;;;;;;;3.87;1.60;;;;;;;10.68;100.00;99534.28;5042574;28;20189;-74
2023/03/13 02:38:07;;;;;;;2.63;1.20;;;;;;;10.70;100.00;99531.63;5039943;28;20211;-74
2023/03/13 02:40:42;;;;;;;4.07;1.50;;;;;;;10.73;100.00;99514.34;5041412;28;20291;-74
2023/03/13 02:43:14;;;;;;;3.07;1.30;;;;;;;10.73;100.00;99503.13;5038793;28;20194;-74
2023/03/13 02:45:40;;;;;;;4.00;1.30;;;;;;;10.71;100.00;99500.56;5041014;28;20240;-74
2023/03/13 02:48:05;;;;;;;2.30;1.63;;;;;;;10.74;100.00;99503.06;5040506;28;20433;-75
2023/03/13 02:50:32;;;;;;;2.90;1.20;;;;;;;10.76;100.00;99503.06;5039002;28;20211;-74
2023/03/13 02:53:01;;;;;;;2.50;0.93;;;;;;;10.79;100.00;99500.41;5039338;28;20409;-74
2023/03/13 02:55:31;;;;;;;2.27;1.10;;;;;;;10.81;100.00;99489.13;5043261;28;20191;-74
2023/03/13 02:57:56;;;;;;;1.57;0.90;;;;;;;10.84;100.00;99493.34;5038400;28;20257;-74
2023/03/13 03:00:25;;;;;;;2.90;1.30;;;;;;;10.88;100.00;99491.56;5043311;28;20215;-74
2023/03/13 03:02:51;;;;;;;2.27;1.30;;;;;;;10.93;100.00;99481.94;5038841;28;20199;-73
2023/03/13 03:05:17;;;;;;;1.30;0.83;;;;;;;10.96;100.00;99474.97;5041480;28;20288;-74
2023/03/13 03:07:42;;;;;;;2.40;1.10;;;;;;;11.00;100.00;99470.56;5040539;28;20211;-74
2023/03/13 03:10:08;;;;;;;5.77;1.10;;;;;;;11.02;100.00;99470.53;5041325;28;20206;-73
2023/03/13 03:12:33;;;;;;;1.93;1.23;;;;;;;11.06;100.00;99478.19;5040672;28;20242;-74
2023/03/13 03:14:59;;;;;;;1.93;0.93;;;;;;;11.07;100.00;99479.03;5043449;28;21146;-74
2023/03/13 03:17:24;;;;;;;2.60;1.00;;;;;;;11.08;100.00;99476.41;5040513;28;20467;-74
2023/03/13 03:19:49;;;;;;;1.70;1.13;;;;;;;11.08;100.00;99484.16;5039756;28;20206;-74
2023/03/13 03:22:15;;;;;;;4.17;1.20;;;;;;;11.08;100.00;99471.22;5039646;28;20198;-74
2023/03/13 03:24:40;;;;;;;3.80;0.93;;;;;;;11.08;100.00;99480.75;5043076;28;20248;-74
2023/03/13 03:27:05;;;;;;;1.40;0.70;;;;;;;11.05;100.00;99486.00;5040609;28;20275;-74
2023/03/13 03:29:30;;;;;;;3.00;1.27;;;;;;;11.05;100.00;99470.47;5042202;28;20579;-74
2023/03/13 03:31:56;;;;;;;1.80;1.07;;;;;;;11.04;100.00;99471.34;5044944;28;20183;-74
2023/03/13 03:34:21;;;;;;;3.17;1.10;;;;;;;11.02;100.00;99468.81;5042169;28;20278;-74
2023/03/13 03:36:47;;;;;;;2.73;1.20;;;;;;;11.03;100.00;99469.63;5040175;28;20183;-74
2023/03/13 03:39:12;;;;;;;2.27;1.10;;;;;;;11.01;100.00;99463.66;5043102;28;20221;-74
2023/03/13 03:41:38;;;;;;;2.43;1.10;;;;;;;11.01;100.00;99474.00;5042764;28;20191;-74
2023/03/13 03:44:04;;;;;;;2.30;1.00;;;;;;;10.98;100.00;99468.00;5052862;28;20214;-74
2023/03/13 03:46:29;;;;;;;3.10;1.10;;;;;;;11.00;100.00;99467.13;5038740;28;20278;-74
2023/03/13 03:48:54;;;;;;;1.67;0.90;;;;;;;11.01;100.00;99451.56;5041991;28;20286;-74
2023/03/13 03:51:21;;;;;;;1.87;1.07;;;;;;;11.02;100.00;99452.41;5041435;28;20662;-74
2023/03/13 03:53:46;;;;;;;2.23;1.00;;;;;;;11.01;100.00;99453.28;5039421;28;20182;-74
2023/03/13 03:56:11;;;;;;;2.40;0.90;;;;;;;11.04;100.00;99463.56;5038445;28;20187;-74
2023/03/13 03:58:37;;;;;;;1.70;0.87;;;;;;;11.05;100.00;99447.16;5040059;28;20876;-75
2023/03/13 04:01:03;;;;;;;1.90;1.00;;;;;;;11.05;100.00;99441.97;5039391;28;20210;-75
2023/03/13 04:03:28;;;;;;;2.10;1.17;;;;;;;11.08;100.00;99432.38;5038188;28;20215;-74
2023/03/13 04:05:53;;;;;;;2.90;1.23;;;;;;;11.08;100.00;99427.22;5040290;28;20679;-74
2023/03/13 04:08:21;;;;;;;3.20;1.43;;;;;;;11.12;100.00;99435.75;5035313;28;20207;-74
2023/03/13 04:10:46;;;;;;;1.50;0.90;;;;;;;11.13;100.00;99427.94;5035425;28;20594;-74
2023/03/13 04:13:11;;;;;;;2.90;1.20;;;;;;;11.17;100.00;99433.91;5039356;28;20186;-74
2023/03/13 04:15:38;;;;;;;2.90;1.30;;;;;;;11.18;100.00;99424.41;5043626;28;20198;-74
2023/03/13 04:18:04;;;;;;;2.87;1.10;;;;;;;11.21;100.00;99424.31;5042230;28;20219;-74
2023/03/13 04:20:30;;;;;;;2.03;0.83;;;;;;;11.25;100.00;99406.09;5041968;28;20698;-74
2023/03/13 04:22:55;;;;;;;2.50;1.13;;;;;;;11.27;100.00;99406.03;5039395;28;20230;-74
2023/03/13 04:25:20;;;;;;;3.73;1.50;;;;;;;11.26;100.00;99410.38;5047023;28;20206;-74
2023/03/13 04:27:46;;;;;;;2.00;1.00;;;;;;;11.27;100.00;99413.78;5044945;28;20317;-74
2023/03/13 04:30:11;;;;;;;2.90;0.97;;;;;;;11.26;100.00;99401.72;5042968;28;20598;-74
2023/03/13 04:32:37;;;;;;;1.77;1.20;;;;;;;11.27;100.00;99411.22;5045909;28;20816;-74
2023/03/13 04:35:02;;;;;;;2.93;1.27;;;;;;;11.26;100.00;99405.19;5043769;28;20329;-74
2023/03/13 04:37:28;;;;;;;1.83;0.90;;;;;;;11.27;100.00;99403.44;5047789;28;21008;-75
2023/03/13 04:39:53;;;;;;;2.53;1.20;;;;;;;11.29;100.00;99402.50;5044596;28;20261;-74
2023/03/13 04:42:18;;;;;;;2.70;1.03;;;;;;;11.30;100.00;99395.59;5046828;28;20192;-74
2023/03/13 04:44:44;;;;;;;1.10;1.00;;;;;;;11.28;100.00;99403.38;5040457;28;20187;-74
2023/03/13 04:47:09;;;;;;;1.83;0.90;;;;;;;11.30;100.00;99395.59;5046669;28;20200;-75
2023/03/13 04:49:34;;;;;;;2.17;1.00;;;;;;;11.37;100.00;99391.94;5045480;28;21977;-74
2023/03/13 04:52:00;;;;;;;2.10;0.93;;;;;;;11.37;100.00;99402.28;5042096;28;20256;-74
2023/03/13 04:54:26;;;;;;;2.17;1.03;;;;;;;11.39;100.00;99389.31;5046026;28;20191;-74
2023/03/13 04:56:51;;;;;;;1.67;0.90;;;;;;;11.42;100.00;99397.84;5044743;28;20190;-74
2023/03/13 04:59:16;;;;;;;1.07;0.60;;;;;;;11.41;100.00;99401.34;5042499;28;20291;-74
2023/03/13 05:01:42;;;;;;;1.40;0.80;;;;;;;11.47;100.00;99415.03;5039464;28;20675;-74
2023/03/13 05:04:09;;;;;;;1.17;0.80;;;;;;;11.49;100.00;99413.25;5039696;28;20275;-74
2023/03/13 05:06:35;;;;;;;4.10;0.90;;;;;;;11.52;100.00;99408.81;5043076;28;20196;-74
2023/03/13 05:09:01;;;;;;;0.80;0.67;;;;;;;11.49;100.00;99419.25;5041608;28;20218;-75
2023/03/13 05:11:26;;;;;;;1.00;0.63;;;;;;;11.48;100.00;99425.34;5043716;28;20185;-74
2023/03/13 05:13:52;;;;;;;1.93;0.53;;;;;;;11.48;100.00;99421.91;5038847;28;20754;-74
2023/03/13 05:16:17;;;;;;;1.50;0.80;;;;;;;11.47;100.00;99415.03;5044410;28;20581;-74
2023/03/13 05:18:42;;;;;;;0.73;0.60;;;;;;;11.46;100.00;99421.94;5042232;28;20310;-74
2023/03/13 05:21:08;;;;;;;1.57;0.90;;;;;;;11.46;100.00;99421.09;5044044;28;20229;-75
2023/03/13 05:23:33;;;;;;;1.20;0.60;;;;;;;11.44;100.00;99415.94;5042498;28;20203;-74
2023/03/13 05:25:59;;;;;;;1.50;0.60;;;;;;;11.44;100.00;99415.94;5062884;28;20191;-75
2023/03/13 05:28:25;;;;;;;1.93;0.70;;;;;;;11.47;100.00;99409.84;5037788;28;20196;-75
2023/03/13 05:30:50;;;;;;;0.93;0.40;;;;;;;11.47;100.00;99413.28;5039021;28;21998;-74
2023/03/13 05:33:18;;;;;;;1.50;0.60;;;;;;;11.47;100.00;99407.25;5055575;28;20187;-73
2023/03/13 05:35:43;;;;;;;0.73;0.40;;;;;;;11.46;100.00;99408.13;5044576;28;20845;-74
2023/03/13 05:38:08;;;;;;;1.17;0.60;;;;;;;11.44;100.00;99423.72;5044328;28;20669;-74
2023/03/13 05:40:34;;;;;;;1.60;0.73;;;;;;;11.46;100.00;99427.13;5045245;28;20217;-72
2023/03/13 05:42:59;;;;;;;1.30;0.70;;;;;;;11.46;100.00;99429.69;5041440;28;20198;-75
2023/03/13 05:45:24;;;;;;;0.90;0.60;;;;;;;11.49;100.00;99429.63;5042179;28;20564;-73
2023/03/13 05:47:50;;;;;;;0.90;0.60;;;;;;;11.48;100.00;99435.69;5042107;28;20305;-73
2023/03/13 05:50:16;;;;;;;0.93;0.67;;;;;;;11.48;100.00;99429.69;5044027;28;20242;-73
2023/03/13 05:52:41;;;;;;;0.60;0.50;;;;;;;11.49;100.00;99427.03;5045690;28;20188;-75
2023/03/13 05:55:07;;;;;;;0.90;0.50;;;;;;;11.52;100.00;99434.72;5041973;28;20264;-73
2023/03/13 05:57:32;;;;;;;0.90;0.47;;;;;;;11.48;100.00;99438.28;5039577;28;20507;-73
2023/03/13 05:59:58;;;;;;;0.90;0.60;;;;;;;11.53;100.00;99440.75;5035093;28;20222;-73
2023/03/13 06:02:24;;;;;;;1.40;0.70;;;;;;;11.53;100.00;99443.34;5037979;28;20219;-75
2023/03/13 06:04:49;;;;;;;1.33;0.70;;;;;;;11.54;100.00;99422.59;5049538;28;20732;-74
2023/03/13 06:07:15;;;;;;;1.37;0.60;;;;;;;11.58;100.00;99426.78;5043253;28;20777;-74
2023/03/13 06:09:40;;;;;;;1.23;0.53;;;;;;;11.58;100.00;99420.75;5043846;28;20249;-72
2023/03/13 06:12:10;;;;;;;1.20;0.80;;;;;;;11.62;100.00;99416.34;5042782;28;20248;-75
2023/03/13 06:14:36;;;;;;;0.93;0.63;;;;;;;11.68;100.00;99411.00;5040383;28;20194;-73
2023/03/13 06:17:02;;;;;;;0.90;0.60;;;;;;;11.67;100.00;99414.47;5043350;28;20184;-74
2023/03/13 06:19:28;;;;;;;1.13;0.67;;;;;;;11.70;100.00;99406.63;5044035;28;20210;-74
2023/03/13 06:21:53;;;;;;;1.00;0.63;;;;;;;11.74;100.00;99424.63;5041411;28;20283;-73
2023/03/13 06:24:18;;;;;;;2.60;0.70;;;;;;;11.77;100.00;99423.69;5048758;28;20571;-73
2023/03/13 06:26:44;;;;;;;2.60;0.83;;;;;;;11.75;100.00;99433.25;5041805;28;20196;-73
2023/03/13 06:29:10;;;;;;;1.10;0.53;;;;;;;11.75;100.00;99428.06;5057624;28;20260;-76
2023/03/13 06:31:35;;;;;;;1.30;0.60;;;;;;;11.75;100.00;99422.88;5040736;28;20226;-73
2023/03/13 06:34:01;;;;;;;1.90;0.60;;;;;;;11.77;100.00;99428.88;5037354;28;20187;-74
2023/03/13 06:36:26;;;;;;;0.93;0.57;;;;;;;11.78;100.00;99432.34;5044723;28;20251;-74
2023/03/13 06:38:51;;;;;;;1.87;0.80;;;;;;;11.77;100.00;99430.63;5051260;28;20227;-74
2023/03/13 06:41:17;;;;;;;2.03;0.70;;;;;;;11.77;100.00;99428.88;5038957;28;20197;-74
2023/03/13 06:43:42;;;;;;;1.17;0.60;;;;;;;11.78;100.00;99433.16;5041142;28;20220;-74
2023/03/13 06:46:16;;;;;;;1.23;0.60;;;;;;;11.77;100.00;99438.41;5056855;28;20224;-74
2023/03/13 06:48:41;;;;;;;1.40;0.70;;;;;;;11.78;100.00;99434.94;5041116;28;20743;-74
2023/03/13 06:51:10;;;;;;;1.57;0.67;;;;;;;11.80;100.00;99438.34;5041921;28;20209;-74
2023/03/13 06:53:36;;;;;;;0.83;0.50;;;;;;;11.78;100.00;99440.94;5046141;28;20603;-73
2023/03/13 06:56:01;;;;;;;2.50;1.90;;;;;;;11.83;100.00;99431.31;5046583;28;20233;-74
2023/03/13 06:58:26;;;;;;;0.87;0.67;;;;;;;11.87;100.00;99432.06;5039105;28;20220;-74
2023/03/13 07:00:52;;;;;;;1.43;0.60;;;;;;;11.88;100.00;99429.41;5044297;28;20225;-74
2023/03/13 07:03:17;;;;;;;0.80;0.67;;;;;;;11.92;100.00;99418.97;5059102;28;20199;-74
2023/03/13 07:05:42;;;;;;;1.43;0.50;;;;;;;11.97;100.00;99417.09;5036790;28;20746;-74
2023/03/13 07:08:08;;;;;;;1.20;0.60;;;;;;;12.03;100.00;99415.22;5048644;28;20240;-73
2023/03/13 07:10:33;;;;;;;1.17;0.73;;;;;;;12.09;100.00;99408.16;5036371;28;20300;-73
2023/03/13 07:12:58;;;;;;;1.77;0.70;;;;;;;12.14;100.00;99414.03;5038146;28;20275;-73
2023/03/13 07:15:24;;;;;;;1.10;0.60;;;;;;;12.18;100.00;99411.31;5039764;28;20191;-74
2023/03/13 07:17:49;;;;;;;1.63;0.70;;;;;;;12.25;100.00;99398.16;5037343;28;20216;-74
2023/03/13 07:20:15;;;;;;;1.50;0.63;;;;;;;12.31;100.00;99400.59;5043974;28;20297;-75
2023/03/13 07:22:40;;;;;;;1.00;0.67;;;;;;;12.36;100.00;99393.50;5043415;28;20191;-74
2023/03/13 07:25:06;;;;;;;0.80;0.50;;;;;;;12.41;100.00;99391.63;5041885;28;20200;-74
2023/03/13 07:27:31;;;;;;;0.97;0.60;;;;;;;12.46;100.00;99376.75;5042628;28;20184;-73
2023/03/13 07:29:57;;;;;;;1.00;0.73;;;;;;;12.49;100.00;99360.22;5044707;28;20223;-74
2023/03/13 07:32:22;;;;;;;0.90;0.47;;;;;;;12.54;100.00;99368.72;5041448;28;20429;-73
2023/03/13 07:34:47;;;;;;;0.60;0.60;;;;;;;12.61;100.00;99366.78;5042368;28;20662;-74
2023/03/13 07:37:14;;;;;;;0.60;0.60;;;;;;;12.65;100.00;99374.41;5042487;28;20791;-73
2023/03/13 07:39:41;;;;;;;0.50;0.50;;;;;;;12.71;100.00;99372.50;5041524;28;20643;-73
2023/03/13 07:42:09;;;;;;;1.07;0.50;;;;;;;12.79;100.00;99375.72;5043187;28;20708;-74
2023/03/13 07:44:34;;;;;;;0.50;0.50;;;;;;;12.89;100.00;99373.66;5037160;28;20205;-74
2023/03/13 07:47:00;;;;;;;1.53;0.70;;;;;;;13.05;100.00;99374.00;5041983;28;20945;-72
2023/03/13 07:49:25;;;;;;;0.30;0.30;;;;;;;13.18;100.00;99371.84;5040491;28;20207;-73
2023/03/13 07:51:51;;;;;;;0.60;0.50;;;;;;;13.33;100.00;99358.31;5041560;28;20259;-74
2023/03/13 07:54:16;;;;;;;0.87;0.67;;;;;;;13.46;100.00;99358.72;5039863;28;20197;-74
2023/03/13 07:56:41;;;;;;;1.17;0.50;;;;;;;13.65;100.00;99361.53;5041606;28;20244;-74
2023/03/13 07:59:07;;;;;;;0.73;0.60;;;;;;;13.86;100.00;99366.81;5039780;28;20884;-74
2023/03/13 08:01:32;;;;;;;0.97;0.70;;;;;;;14.03;100.00;99368.81;5053993;28;20195;-73
2023/03/13 08:04:01;;;;;;;0.57;0.50;;;;;;;14.14;100.00;99364.03;5044318;28;20195;-74
2023/03/13 08:06:29;;;;;;;0.70;0.50;;;;;;;14.23;100.00;99369.78;5042410;28;20190;-75
2023/03/13 08:08:58;;;;;;;1.33;0.70;;;;;;;14.23;100.00;99367.19;5042952;28;20190;-75
2023/03/13 08:11:25;;;;;;;1.13;0.57;;;;;;;14.24;100.00;99361.06;5039428;28;20194;-74
2023/03/13 08:13:52;;;;;;;1.00;0.70;;;;;;;14.23;100.00;99368.03;5042701;28;20182;-74
2023/03/13 08:16:20;;;;;;;1.17;0.60;;;;;;;14.32;100.00;99374.66;5043781;28;20210;-74
2023/03/13 08:18:47;;;;;;;0.70;0.50;;;;;;;14.36;100.00;99373.63;5047187;28;20215;-74
2023/03/13 08:21:17;;;;;;;1.27;0.50;;;;;;;14.44;100.00;99368.94;5042593;28;20671;-73
2023/03/13 08:23:43;;;;;;;0.67;0.60;;;;;;;14.53;100.00;99374.69;5038427;28;20192;-74
2023/03/13 08:26:11;;;;;;;0.53;0.50;;;;;;;14.53;100.00;99359.06;5036978;28;20255;-74
2023/03/13 08:28:38;;;;;;;0.77;0.70;;;;;;;14.44;100.00;99368.13;5046174;28;20256;-74
2023/03/13 08:31:16;;;;;;;1.07;0.73;;;;;;;14.31;100.00;99363.38;5047020;28;20276;-74
2023/03/13 08:33:44;;;;;;;0.90;0.63;;;;;;;14.16;100.00;99364.84;5043867;28;20198;-74
2023/03/13 08:36:20;;;;;;;1.77;0.60;;;;;;;14.03;100.00;99359.25;5049389;28;20240;-74
2023/03/13 08:38:46;;;;;;;1.80;0.70;;;;;;;14.02;100.00;99361.91;5045821;28;20694;-74
2023/03/13 08:41:14;;;;;;;0.93;0.60;;;;;;;13.99;100.00;99364.63;5046273;28;20236;-74
2023/03/13 08:43:40;;;;;;;0.70;0.60;;;;;;;14.01;100.00;99363.66;5063282;28;20213;-74
2023/03/13 08:46:05;;;;;;;0.77;0.60;;;;;;;14.08;100.00;99347.81;5050176;28;20646;-74
2023/03/13 08:48:31;;;;;;;1.37;0.70;;;;;;;14.20;100.00;99359.50;5050190;28;20209;-74
2023/03/13 08:51:14;;;;;;;1.60;0.60;;;;;;;14.32;100.00;99348.63;5049548;28;20206;-74
2023/03/13 08:53:41;;;;;;;1.40;0.70;;;;;;;14.42;100.00;99344.72;5049869;28;20201;-74
2023/03/13 08:56:12;;;;;;;0.60;0.53;;;;;;;14.54;100.00;99334.72;5047598;28;20211;-74
2023/03/13 08:58:38;;;;;;;1.20;0.80;;;;;;;14.62;100.00;99336.09;5034533;28;20306;-75
2023/03/13 09:01:06;;;;;;;1.17;0.70;;;;;;;14.64;100.00;99342.09;5059077;28;20206;-75
2023/03/13 09:03:32;;;;;;;0.80;0.50;;;;;;;14.63;100.00;99331.75;5047874;28;20682;-74
2023/03/13 09:05:59;;;;;;;1.63;0.80;;;;;;;14.65;100.00;99335.16;5048841;28;20214;-75
2023/03/13 09:08:25;;;;;;;0.70;0.70;;;;;;;14.74;100.00;99331.34;5047921;28;20605;-74
2023/03/13 09:10:58;;;;;;;2.23;0.87;;;;;;;14.88;100.00;99323.81;5046458;28;20238;-74
2023/03/13 09:13:24;;;;;;;1.23;0.80;;;;;;;15.03;99.68;99311.03;5046899;28;20456;-74
2023/03/13 09:15:57;;;;;;;2.00;0.80;;;;;;;15.29;98.95;99309.06;5044854;28;20195;-75
2023/03/13 09:18:23;;;;;;;0.67;0.60;;;;;;;15.50;98.74;99300.25;5044113;28;20322;-74
2023/03/13 09:20:49;;;;;;;1.20;0.83;;;;;;;15.66;97.62;99299.56;5043246;28;20240;-73
2023/03/13 09:23:14;;;;;;;1.43;0.90;;;;;;;15.79;97.31;99299.84;5045195;28;20733;-74
2023/03/13 09:25:39;;;;;;;1.83;0.80;;;;;;;15.94;96.59;99296.53;5044171;28;20201;-74
2023/03/13 09:28:05;;;;;;;3.10;1.20;;;;;;;16.12;95.31;99299.22;5045696;28;20721;-74
2023/03/13 09:30:30;;;;;;;1.13;0.87;;;;;;;16.27;95.32;99295.84;5044525;28;20217;-74
2023/03/13 09:32:55;;;;;;;1.40;0.93;;;;;;;16.59;94.54;99288.22;5046722;28;20200;-75
2023/03/13 09:35:21;;;;;;;3.23;0.80;;;;;;;16.94;92.92;99295.19;5042610;28;20186;-75
2023/03/13 09:37:46;;;;;;;0.83;0.70;;;;;;;17.29;91.17;99292.53;5044622;28;20229;-75
2023/03/13 09:40:17;;;;;;;1.17;0.80;;;;;;;17.65;90.54;99291.47;5057692;28;20207;-75
2023/03/13 09:42:54;;;;;;;1.10;0.70;;;;;;;17.97;88.63;99291.50;5045765;28;20276;-74
2023/03/13 09:45:25;;;;;;;1.40;0.90;;;;;;;18.21;86.90;99270.13;5042007;28;20603;-75
2023/03/13 09:48:06;;;;;;;0.90;0.83;;;;;;;18.36;85.67;99276.25;5041782;28;20595;-74
2023/03/13 09:50:35;;;;;;;1.03;0.90;;;;;;;18.46;85.62;99276.56;5044025;28;20204;-75
2023/03/13 09:53:13;;;;;;;2.10;0.90;;;;;;;18.61;84.49;99273.97;5043365;28;20198;-74
2023/03/13 09:55:41;;;;;;;1.17;0.70;;;;;;;18.58;83.96;99267.16;5037685;28;20194;-74
2023/03/13 09:58:16;;;;;;;2.00;1.07;;;;;;;18.55;85.05;99283.88;5035904;28;20254;-74
2023/03/13 10:01:05;;;;;;;0.90;0.83;;;;;;;18.57;83.49;99279.38;5039715;28;20301;-75
2023/03/13 10:03:54;;;;;;;2.10;1.23;;;;;;;18.55;83.84;99267.31;5055331;28;20607;-74
2023/03/13 10:06:22;;;;;;;2.50;0.83;;;;;;;18.50;84.18;99271.97;5038887;28;20733;-75
2023/03/13 10:08:47;;;;;;;2.23;1.43;;;;;;;18.51;84.54;99247.47;5042017;28;20183;-74
2023/03/13 10:11:26;;;;;;;2.20;1.00;;;;;;;18.48;84.73;99245.03;5035600;28;20702;-75
2023/03/13 10:14:03;;;;;;;1.63;0.77;;;;;;;18.54;84.51;99255.16;5043763;28;20202;-75
2023/03/13 10:16:43;;;;;;;2.17;1.00;;;;;;;18.74;83.75;99253.97;5043246;28;20181;-75
2023/03/13 10:19:15;;;;;;;1.50;1.00;;;;;;;18.95;82.55;99245.78;5038784;28;20642;-74
2023/03/13 10:21:43;;;;;;;1.30;1.03;;;;;;;19.13;82.03;99238.56;5040769;28;20277;-75
2023/03/13 10:24:35;;;;;;;1.70;0.90;;;;;;;19.32;82.08;99239.13;5041618;28;20187;-74
2023/03/13 10:27:00;;;;;;;1.50;0.97;;;;;;;19.61;80.93;99246.09;5039125;28;20205;-74
2023/03/13 10:29:28;;;;;;;1.23;1.00;;;;;;;19.74;79.75;99235.66;5042651;28;20298;-74
2023/03/13 10:32:06;;;;;;;2.90;1.20;;;;;;;19.86;79.79;99239.28;5041378;28;20190;-74
2023/03/13 10:34:57;;;;;;;1.67;1.00;;;;;;;19.86;79.87;99232.25;5046829;28;20171;-74
2023/03/13 10:37:41;;;;;;;1.70;1.10;;;;;;;19.58;79.21;99226.16;5045812;28;20241;-74
2023/03/13 10:40:26;;;;;;;2.00;1.00;;;;;;;19.09;80.76;99221.34;5042807;28;20301;-74
2023/03/13 10:43:00;;;;;;;1.03;0.90;;;;;;;18.73;82.48;99211.22;5043640;28;20194;-74
2023/03/13 10:45:29;;;;;;;1.17;1.00;;;;;;;18.72;82.66;99206.03;5044934;28;20694;-74
2023/03/13 10:48:00;;;;;;;1.50;1.00;;;;;;;19.03;82.32;99193.72;5042674;28;20626;-75
2023/03/13 10:50:31;;;;;;;1.27;1.00;;;;;;;19.10;82.21;99186.31;5045026;28;20332;-74
2023/03/13 10:52:57;;;;;;;1.23;1.10;;;;;;;18.98;82.56;99174.81;5041845;28;20678;-74
2023/03/13 10:55:25;;;;;;;1.70;1.10;;;;;;;18.80;83.27;99176.75;5039112;28;20194;-74
2023/03/13 10:58:02;;;;;;;3.63;1.10;;;;;;;18.68;83.53;99175.75;5040314;28;20218;-74
2023/03/13 11:00:39;;;;;;;2.00;0.90;;;;;;;18.62;84.56;99161.19;5042827;28;20221;-75
2023/03/13 11:03:18;;;;;;;1.20;1.10;;;;;;;18.54;85.02;99158.22;5039286;28;20195;-75
2023/03/13 11:05:54;;;;;;;1.80;1.10;;;;;;;18.46;84.93;99150.81;5045088;28;20177;-74
2023/03/13 11:08:23;;;;;;;2.70;1.10;;;;;;;18.46;84.75;99149.97;5042559;28;20212;-74
2023/03/13 11:10:57;;;;;;;1.30;1.10;;;;;;;18.49;85.81;99134.06;5038583;28;20230;-74
2023/03/13 11:13:35;;;;;;;1.70;0.90;;;;;;;18.50;86.23;99134.00;5040404;28;20194;-75
2023/03/13 11:16:17;;;;;;;3.13;1.10;;;;;;;18.51;86.36;99126.97;5037777;28;20235;-75
2023/03/13 11:18:59;;;;;;;2.50;1.10;;;;;;;18.56;86.13;99128.34;5044569;28;20230;-75
2023/03/13 11:21:56;;;;;;;2.27;1.27;;;;;;;18.53;86.18;99110.19;5066524;28;20191;-74
2023/03/13 11:24:45;;;;;;;2.10;1.30;;;;;;;18.64;86.88;99104.31;5043028;28;20253;-74
2023/03/13 11:27:18;;;;;;;2.10;1.37;;;;;;;18.83;86.74;99106.63;5042483;28;20186;-75
2023/03/13 11:30:11;;;;;;;1.93;1.00;;;;;;;19.00;85.40;99099.50;5041077;28;20207;-74
2023/03/13 11:32:50;;;;;;;1.87;1.40;;;;;;;19.14;85.01;99093.41;5040369;28;20179;-74